Time;durP1;ratioP1;P1;durP2;ratioP2;P2;SDS_P1;SDS_P2;PMS_P1;PMS_P2;Temp;Humidity;BMP_temperature;BMP_pressure;BME280_temperature;BME280_humidity;BME280_pressure;Samples;Min_cycle;Max_cycle;Signal;HPM_P1;HPM_P2
2022/05/18 00:00:45;;;;;;;16.70;10.30;;;;;;;11.09;100.00;96036.19;5065262;28;20067;-76
2022/05/18 00:03:12;;;;;;;19.95;10.73;;;;;;;11.07;100.00;96027.75;5057973;28;20044;-76
2022/05/18 00:05:40;;;;;;;21.88;10.23;;;;;;;10.96;100.00;96036.69;5070872;28;20563;-76
2022/05/18 00:08:06;;;;;;;21.80;10.20;;;;;;;10.90;100.00;96041.94;5062151;28;20044;-76
2022/05/18 00:10:34;;;;;;;23.02;10.50;;;;;;;10.77;100.00;96037.13;5053712;28;20074;-76
2022/05/18 00:12:59;;;;;;;17.52;9.98;;;;;;;10.80;100.00;96033.19;5051193;28;20057;-77
2022/05/18 00:15:26;;;;;;;23.58;10.70;;;;;;;10.87;100.00;96039.78;5052338;28;20483;-77
2022/05/18 00:17:52;;;;;;;16.02;9.50;;;;;;;10.80;100.00;96033.97;5053347;28;20085;-76
2022/05/18 00:20:18;;;;;;;17.55;10.18;;;;;;;10.76;100.00;96032.94;5054721;28;20573;-76
2022/05/18 00:22:45;;;;;;;17.85;9.88;;;;;;;10.78;100.00;96035.31;5071726;28;20113;-76
2022/05/18 00:25:10;;;;;;;18.65;9.77;;;;;;;10.77;100.00;96044.25;5066499;28;20041;-76
2022/05/18 00:27:36;;;;;;;16.23;9.95;;;;;;;10.71;100.00;96035.53;5052161;28;20533;-77
2022/05/18 00:30:01;;;;;;;15.93;9.57;;;;;;;10.62;100.00;96031.81;5052774;28;20059;-77
2022/05/18 00:32:27;;;;;;;18.52;10.23;;;;;;;10.73;100.00;96041.31;5051964;28;20048;-77
2022/05/18 00:34:52;;;;;;;17.40;10.25;;;;;;;10.66;100.00;96038.13;5068391;28;20099;-77
2022/05/18 00:37:18;;;;;;;17.85;8.88;;;;;;;10.63;100.00;96033.38;5051870;28;20056;-77
2022/05/18 00:39:43;;;;;;;19.63;9.70;;;;;;;10.58;100.00;96040.19;5052613;28;20041;-77
2022/05/18 00:42:20;;;;;;;19.42;9.52;;;;;;;10.63;100.00;96046.53;5067290;28;20044;-77
2022/05/18 00:44:46;;;;;;;20.70;9.60;;;;;;;10.61;100.00;96046.03;5051673;28;20486;-76
2022/05/18 00:47:12;;;;;;;16.70;9.40;;;;;;;10.50;100.00;96038.06;5050485;28;20037;-77
2022/05/18 00:49:41;;;;;;;18.33;10.10;;;;;;;10.53;100.00;96040.19;5065427;28;20052;-77
2022/05/18 00:52:07;;;;;;;15.57;9.00;;;;;;;10.49;100.00;96044.38;5050270;28;20150;-77
2022/05/18 00:54:35;;;;;;;18.95;9.23;;;;;;;10.46;100.00;96046.72;5050521;28;20049;-77
2022/05/18 00:57:12;;;;;;;16.08;9.38;;;;;;;10.47;100.00;96041.19;5052232;28;20048;-76
2022/05/18 00:59:45;;;;;;;19.30;9.38;;;;;;;10.44;100.00;96040.94;5062548;28;20426;-77
2022/05/18 01:02:12;;;;;;;16.77;9.57;;;;;;;10.34;100.00;96041.66;5068598;28;20037;-77
2022/05/18 01:04:40;;;;;;;15.77;9.75;;;;;;;10.35;100.00;96043.25;5069930;28;20047;-77
2022/05/18 01:07:12;;;;;;;18.13;9.75;;;;;;;10.31;100.00;96047.41;5070461;28;20102;-77
2022/05/18 01:09:42;;;;;;;17.27;9.32;;;;;;;10.22;100.00;96050.50;5073390;28;20698;-77
2022/05/18 01:12:12;;;;;;;15.15;8.88;;;;;;;10.14;100.00;96043.09;5052308;28;20064;-77
2022/05/18 01:15:05;;;;;;;16.40;9.60;;;;;;;10.10;100.00;96039.38;5051331;28;20044;-76
2022/05/18 01:17:34;;;;;;;18.80;9.65;;;;;;;10.08;100.00;96044.09;5053590;28;20406;-76
2022/05/18 01:20:03;;;;;;;16.80;9.70;;;;;;;10.10;100.00;96041.22;5067337;28;20037;-76
2022/05/18 01:22:34;;;;;;;21.65;9.88;;;;;;;10.08;100.00;96043.31;5055130;28;20395;-76
2022/05/18 01:25:46;;;;;;;19.27;10.02;;;;;;;9.96;100.00;96040.88;5050812;28;20048;-77
2022/05/18 01:28:13;;;;;;;22.33;9.77;;;;;;;9.93;100.00;96046.59;5049066;28;20077;-77
2022/05/18 01:30:46;;;;;;;15.35;9.43;;;;;;;9.92;100.00;96042.41;5055462;28;20464;-76
2022/05/18 01:33:13;;;;;;;19.55;9.95;;;;;;;9.88;100.00;96050.81;5069094;28;20047;-77
2022/05/18 01:35:42;;;;;;;14.85;9.10;;;;;;;9.85;100.00;96046.03;5068586;28;20135;-77
2022/05/18 01:38:12;;;;;;;15.45;8.63;;;;;;;9.84;100.00;96049.72;5054590;28;20695;-77
2022/05/18 01:40:58;;;;;;;20.92;9.95;;;;;;;9.84;100.00;96046.28;5070896;28;20068;-77
2022/05/18 01:43:35;;;;;;;18.48;9.27;;;;;;;9.77;100.00;96061.47;5067413;28;20045;-77
2022/05/18 01:46:05;;;;;;;16.23;8.43;;;;;;;9.79;100.00;96049.66;5069099;28;20541;-76
2022/05/18 01:48:35;;;;;;;16.77;9.40;;;;;;;9.82;100.00;96051.78;5059606;28;20414;-77
2022/05/18 01:51:03;;;;;;;13.32;8.52;;;;;;;9.82;100.00;96057.03;5051441;28;20097;-77
2022/05/18 01:53:30;;;;;;;19.42;8.68;;;;;;;9.77;100.00;96070.16;5051474;28;20049;-77
2022/05/18 01:55:55;;;;;;;12.50;8.30;;;;;;;9.72;100.00;96064.84;5050404;28;20044;-77
2022/05/18 01:58:22;;;;;;;16.95;9.10;;;;;;;9.71;100.00;96065.88;5051093;28;20091;-77
2022/05/18 02:00:49;;;;;;;17.13;9.23;;;;;;;9.67;100.00;96070.06;5066611;28;20040;-77
2022/05/18 02:03:15;;;;;;;15.23;9.60;;;;;;;9.59;100.00;96060.00;5070165;28;20041;-77
2022/05/18 02:05:42;;;;;;;17.67;9.50;;;;;;;9.64;100.00;96060.03;5068213;28;20413;-77
2022/05/18 02:08:08;;;;;;;16.05;9.00;;;;;;;9.61;100.00;96060.53;5069801;28;20046;-77
2022/05/18 02:10:35;;;;;;;18.27;9.38;;;;;;;9.56;100.00;96063.13;5049841;28;20044;-76
2022/05/18 02:13:00;;;;;;;18.35;9.57;;;;;;;9.60;100.00;96058.97;5048805;28;20049;-76
2022/05/18 02:15:27;;;;;;;15.13;9.07;;;;;;;9.66;100.00;96063.22;5049803;28;20041;-77
2022/05/18 02:17:53;;;;;;;16.35;9.32;;;;;;;9.59;100.00;96062.63;5060972;28;20062;-77
2022/05/18 02:20:19;;;;;;;18.35;9.43;;;;;;;9.53;100.00;96059.16;5049415;28;20041;-77
2022/05/18 02:22:45;;;;;;;16.38;8.73;;;;;;;9.50;100.00;96060.44;5057946;28;20068;-76
2022/05/18 02:25:11;;;;;;;17.00;9.25;;;;;;;9.45;100.00;96065.66;5067772;28;20041;-76
2022/05/18 02:27:37;;;;;;;17.85;9.95;;;;;;;9.38;100.00;96067.69;5054073;28;20414;-76
2022/05/18 02:30:05;;;;;;;17.45;9.68;;;;;;;9.32;100.00;96073.91;5054160;28;20032;-76
2022/05/18 02:32:30;;;;;;;14.55;8.60;;;;;;;9.16;100.00;96072.97;5049793;28;20045;-77
2022/05/18 02:34:56;;;;;;;17.08;9.25;;;;;;;9.15;100.00;96074.81;5053804;28;20037;-77
2022/05/18 02:37:21;;;;;;;19.95;10.48;;;;;;;9.10;100.00;96077.38;5068069;28;20068;-76
2022/05/18 02:39:47;;;;;;;19.42;9.80;;;;;;;9.17;100.00;96072.72;5067154;28;20506;-77
2022/05/18 02:42:12;;;;;;;15.68;9.82;;;;;;;9.11;100.00;96078.97;5069250;28;20036;-77
2022/05/18 02:44:38;;;;;;;16.45;9.55;;;;;;;9.08;100.00;96076.84;5067702;28;20140;-77
2022/05/18 02:47:04;;;;;;;16.85;9.45;;;;;;;9.18;100.00;96082.19;5068002;28;20513;-77
2022/05/18 02:49:29;;;;;;;16.85;9.48;;;;;;;9.22;100.00;96085.09;5058618;28;20041;-77
2022/05/18 02:51:55;;;;;;;16.70;9.48;;;;;;;9.23;100.00;96085.91;5049510;28;20076;-76
2022/05/18 02:57:07;;;;;;;15.25;9.30;;;;;;;9.18;100.00;96090.06;5067512;28;20036;-77
2022/05/18 02:59:33;;;;;;;17.30;9.20;;;;;;;9.18;100.00;96084.03;5064236;28;20041;-77
2022/05/18 03:01:59;;;;;;;23.30;9.68;;;;;;;9.16;100.00;96092.13;5068196;28;20048;-77
2022/05/18 03:04:25;;;;;;;16.17;9.48;;;;;;;9.07;100.00;96088.38;5068301;28;20045;-77
2022/05/18 03:06:52;;;;;;;18.35;9.73;;;;;;;9.06;100.00;96089.41;5069344;28;20444;-76
2022/05/18 03:09:18;;;;;;;14.73;9.35;;;;;;;9.08;100.00;96095.22;5059801;28;20037;-77
2022/05/18 03:11:44;;;;;;;17.23;9.45;;;;;;;9.04;100.00;96099.38;5048655;28;20056;-77
2022/05/18 03:14:10;;;;;;;17.08;9.68;;;;;;;8.91;100.00;96095.28;5053204;28;20047;-77
2022/05/18 03:16:37;;;;;;;18.05;10.00;;;;;;;8.93;100.00;96097.66;5060059;28;20036;-77
2022/05/18 03:19:03;;;;;;;17.13;9.52;;;;;;;8.97;100.00;96109.25;5058597;28;20132;-76
2022/05/18 03:24:13;;;;;;;17.38;9.13;;;;;;;8.80;100.00;96104.84;5067170;28;20086;-77
2022/05/18 03:26:39;;;;;;;14.98;9.18;;;;;;;8.84;100.00;96111.19;5052563;28;20044;-77
2022/05/18 03:29:04;;;;;;;18.85;9.35;;;;;;;9.05;100.00;96119.34;5052501;28;20045;-77
2022/05/18 03:31:30;;;;;;;15.55;9.35;;;;;;;8.90;100.00;96117.28;5053144;28;20104;-77
2022/05/18 03:33:56;;;;;;;19.40;10.50;;;;;;;8.92;100.00;96119.69;5052907;28;20125;-77
2022/05/18 03:36:22;;;;;;;19.25;9.27;;;;;;;8.91;100.00;96120.72;5062836;28;20438;-77
2022/05/18 03:38:48;;;;;;;15.25;9.45;;;;;;;8.96;100.00;96128.66;5063294;28;20041;-77
2022/05/18 03:41:16;;;;;;;18.98;9.55;;;;;;;8.91;100.00;96120.72;5061274;28;20502;-77
2022/05/18 03:43:42;;;;;;;17.45;9.65;;;;;;;8.91;100.00;96120.72;5072234;28;20561;-77
2022/05/18 03:46:09;;;;;;;14.98;8.82;;;;;;;8.90;100.00;96124.38;5064710;28;20044;-77
2022/05/18 03:48:35;;;;;;;20.95;9.30;;;;;;;8.87;100.00;96130.13;5051718;28;20048;-77
2022/05/18 03:51:03;;;;;;;18.58;9.77;;;;;;;8.90;100.00;96124.38;5053453;28;20094;-77
2022/05/18 03:53:29;;;;;;;19.08;9.90;;;;;;;8.91;100.00;96125.97;5052125;28;20068;-77
2022/05/18 03:55:55;;;;;;;17.80;10.07;;;;;;;8.92;100.00;96127.56;5066207;28;20086;-77
2022/05/18 03:58:21;;;;;;;19.23;9.80;;;;;;;8.92;100.00;96127.56;5069503;28;20044;-77
2022/05/18 04:00:49;;;;;;;18.50;10.13;;;;;;;8.88;100.00;96126.44;5069874;28;20064;-77
2022/05/18 04:03:18;;;;;;;17.33;9.55;;;;;;;8.91;100.00;96124.13;5059942;28;20406;-77
2022/05/18 04:05:43;;;;;;;17.70;9.70;;;;;;;8.87;100.00;96130.13;5051671;28;20045;-77
2022/05/18 04:08:10;;;;;;;19.67;10.00;;;;;;;8.91;100.00;96137.28;5051813;28;20063;-76
2022/05/18 04:10:38;;;;;;;18.02;10.23;;;;;;;8.98;100.00;96137.09;5052850;28;20041;-77
2022/05/18 04:13:05;;;;;;;19.90;10.75;;;;;;;9.06;100.00;96141.91;5051821;28;20052;-77
2022/05/18 04:15:30;;;;;;;18.70;9.60;;;;;;;9.06;100.00;96144.53;5050118;28;20041;-77
2022/05/18 04:17:56;;;;;;;16.77;10.07;;;;;;;9.07;100.00;96140.09;5052706;28;20494;-77
2022/05/18 04:20:23;;;;;;;17.75;9.48;;;;;;;9.09;100.00;96149.28;5052685;28;20051;-77
2022/05/18 04:22:50;;;;;;;18.83;10.93;;;;;;;9.09;100.00;96144.03;5071070;28;20048;-77
2022/05/18 04:25:18;;;;;;;14.48;9.30;;;;;;;9.17;100.00;96148.09;5070482;28;20041;-77
2022/05/18 04:27:47;;;;;;;17.08;9.93;;;;;;;9.19;100.00;96138.94;5055489;28;20110;-77
2022/05/18 04:30:19;;;;;;;19.55;10.20;;;;;;;9.38;100.00;96150.94;5056420;28;20503;-77
2022/05/18 04:32:45;;;;;;;19.23;9.55;;;;;;;9.38;100.00;96151.75;5073862;28;20040;-77
2022/05/18 04:35:14;;;;;;;17.38;10.35;;;;;;;9.43;100.00;96153.66;5062384;28;20554;-77
2022/05/18 04:37:40;;;;;;;18.20;9.80;;;;;;;9.47;100.00;96150.28;5055273;28;20487;-77
2022/05/18 04:40:07;;;;;;;18.92;9.45;;;;;;;9.56;100.00;96157.72;5054610;28;20112;-77
2022/05/18 04:42:33;;;;;;;20.27;10.23;;;;;;;9.61;100.00;96160.41;5056564;28;20144;-77
2022/05/18 04:44:58;;;;;;;16.70;10.68;;;;;;;9.62;100.00;96160.16;5055248;28;20045;-77
2022/05/18 04:47:25;;;;;;;19.58;10.32;;;;;;;9.75;100.00;96161.59;5054715;28;20055;-77
2022/05/18 04:49:51;;;;;;;19.08;10.02;;;;;;;9.92;100.00;96168.59;5055121;28;20178;-77
2022/05/18 04:52:17;;;;;;;24.90;10.15;;;;;;;10.17;100.00;96175.91;5072547;28;20041;-77
2022/05/18 04:54:43;;;;;;;21.40;10.75;;;;;;;10.42;100.00;96180.63;5073093;28;20059;-77
2022/05/18 04:57:09;;;;;;;19.58;10.25;;;;;;;10.44;100.00;96178.53;5057405;28;20469;-77
2022/05/18 04:59:35;;;;;;;18.45;10.65;;;;;;;10.55;100.00;96185.47;5054898;28;20051;-77
2022/05/18 05:02:01;;;;;;;20.38;10.90;;;;;;;10.71;100.00;96182.94;5054934;28;20048;-76
2022/05/18 05:04:26;;;;;;;20.85;11.07;;;;;;;10.77;100.00;96174.03;5055614;28;20036;-77
2022/05/18 05:06:52;;;;;;;21.80;10.68;;;;;;;10.78;100.00;96173.00;5054688;28;20426;-77
2022/05/18 05:09:17;;;;;;;20.92;10.95;;;;;;;10.79;100.00;96179.84;5054932;28;20033;-77
2022/05/18 05:11:43;;;;;;;24.02;9.93;;;;;;;10.81;100.00;96190.13;5071238;28;20053;-77
2022/05/18 05:14:09;;;;;;;20.58;11.27;;;;;;;10.78;100.00;96194.06;5071921;28;20048;-77
2022/05/18 05:16:34;;;;;;;22.02;10.85;;;;;;;10.80;100.00;96191.94;5060700;28;20120;-77
2022/05/18 05:19:00;;;;;;;21.20;11.57;;;;;;;10.95;100.00;96199.16;5061817;28;20041;-77
2022/05/18 05:21:26;;;;;;;19.42;10.93;;;;;;;10.96;100.00;96199.94;5062066;28;20117;-77
2022/05/18 05:23:51;;;;;;;20.85;10.80;;;;;;;10.99;100.00;96205.50;5074095;28;20044;-77
2022/05/18 05:26:17;;;;;;;21.95;11.48;;;;;;;11.16;100.00;96215.06;5064646;28;20490;-77
2022/05/18 05:28:43;;;;;;;24.58;11.68;;;;;;;11.22;100.00;96209.59;5066405;28;20045;-77
2022/05/18 05:31:11;;;;;;;26.95;12.38;;;;;;;11.32;100.00;96213.31;5059045;28;20045;-77
2022/05/18 05:33:39;;;;;;;23.50;12.70;;;;;;;11.37;100.00;96210.72;5054064;28;20045;-77
2022/05/18 05:36:05;;;;;;;24.95;12.43;;;;;;;11.43;100.00;96204.41;5054460;28;20037;-76
2022/05/18 05:38:31;;;;;;;24.20;11.85;;;;;;;11.46;100.00;96203.88;5070157;28;20036;-76
2022/05/18 05:41:00;;;;;;;22.42;12.35;;;;;;;11.55;100.00;96206.81;5067172;28;20086;-76
2022/05/18 05:43:25;;;;;;;25.08;12.63;;;;;;;11.59;100.00;96198.16;5070957;28;20041;-76
2022/05/18 05:46:00;;;;;;;20.45;11.85;;;;;;;11.68;100.00;96208.19;5069223;28;20045;-76
2022/05/18 05:48:26;;;;;;;22.88;11.70;;;;;;;11.74;100.00;96204.53;5057712;28;20529;-76
2022/05/18 05:50:52;;;;;;;25.25;12.65;;;;;;;11.79;100.00;96212.44;5054363;28;20093;-76
2022/05/18 05:53:18;;;;;;;26.65;13.10;;;;;;;12.25;100.00;96215.19;5070916;28;20052;-76
2022/05/18 05:55:44;;;;;;;23.63;12.93;;;;;;;12.56;100.00;96214.44;5063638;28;20040;-77
2022/05/18 05:58:10;;;;;;;23.55;12.15;;;;;;;12.42;100.00;96203.59;5059616;28;20054;-77
2022/05/18 06:00:36;;;;;;;21.90;11.85;;;;;;;12.43;100.00;96207.84;5057879;28;20037;-78
2022/05/18 06:03:03;;;;;;;25.73;13.75;;;;;;;12.77;100.00;96225.78;5051081;28;20594;-76
2022/05/18 06:05:29;;;;;;;26.58;13.02;;;;;;;12.93;100.00;96222.06;5049345;28;20049;-76
2022/05/18 06:07:55;;;;;;;30.95;13.50;;;;;;;13.04;100.00;96217.53;5051869;28;20522;-76
2022/05/18 06:10:21;;;;;;;22.70;12.60;;;;;;;13.12;100.00;96216.22;5050712;28;20059;-76
2022/05/18 06:12:47;;;;;;;24.77;11.98;;;;;;;13.35;100.00;96230.72;5051855;28;20060;-77
2022/05/18 06:15:13;;;;;;;23.80;11.60;;;;;;;13.45;100.00;96227.28;5050450;28;20041;-77
2022/05/18 06:17:39;;;;;;;26.92;11.60;;;;;;;13.46;100.00;96227.00;5059011;28;20059;-77
2022/05/18 06:20:06;;;;;;;23.90;10.85;;;;;;;13.47;100.00;96228.56;5056712;28;20048;-77
2022/05/18 06:22:31;;;;;;;21.17;10.85;;;;;;;13.42;100.00;96225.94;5065536;28;20097;-76
2022/05/18 06:24:57;;;;;;;17.23;10.73;;;;;;;13.64;100.00;96230.88;5070405;28;20115;-76
2022/05/18 06:27:23;;;;;;;22.50;10.38;;;;;;;13.93;100.00;96224.94;5054894;28;20044;-76
2022/05/18 06:29:48;;;;;;;20.05;10.38;;;;;;;14.04;100.00;96226.47;5050826;28;20041;-76
2022/05/18 06:32:17;;;;;;;17.50;10.45;;;;;;;14.03;100.00;96240.75;5062596;28;20115;-76
2022/05/18 06:34:46;;;;;;;22.00;10.43;;;;;;;14.36;98.79;96227.84;5069781;28;20122;-76
2022/05/18 06:37:12;;;;;;;20.13;9.68;;;;;;;14.60;98.90;96232.44;5049733;28;20108;-76
2022/05/18 06:39:38;;;;;;;20.95;9.60;;;;;;;14.54;99.35;96228.28;5050494;28;20044;-77
2022/05/18 06:42:04;;;;;;;18.02;9.57;;;;;;;14.76;97.95;96235.00;5050014;28;20052;-77
2022/05/18 06:44:30;;;;;;;17.70;8.88;;;;;;;14.61;99.51;96236.69;5049050;28;20051;-77
2022/05/18 06:46:59;;;;;;;15.88;9.30;;;;;;;15.04;94.51;96236.06;5049878;28;20033;-76
2022/05/18 06:49:29;;;;;;;19.27;9.40;;;;;;;15.29;92.42;96234.25;5049326;28;20045;-76
2022/05/18 06:51:58;;;;;;;16.13;9.27;;;;;;;15.32;93.30;96237.13;5064975;28;20075;-76
2022/05/18 06:54:23;;;;;;;15.50;9.07;;;;;;;15.27;95.73;96245.16;5069572;28;20045;-76
2022/05/18 06:56:49;;;;;;;14.82;9.40;;;;;;;15.16;94.46;96243.66;5068022;28;20118;-76
2022/05/18 06:59:15;;;;;;;16.27;9.13;;;;;;;15.35;93.24;96247.16;5055959;28;20527;-76
2022/05/18 07:01:42;;;;;;;16.60;9.15;;;;;;;15.55;93.30;96237.41;5071250;28;20093;-77
2022/05/18 07:04:09;;;;;;;16.75;9.35;;;;;;;15.49;93.24;96238.56;5057977;28;20056;-76
2022/05/18 07:06:39;;;;;;;18.45;9.65;;;;;;;15.70;89.31;96236.44;5049625;28;20049;-76
2022/05/18 07:09:08;;;;;;;14.32;9.05;;;;;;;15.89;89.76;96239.16;5049132;28;20049;-76
2022/05/18 07:11:36;;;;;;;15.57;9.75;;;;;;;16.00;88.37;96240.59;5051087;28;20142;-77
2022/05/18 07:14:05;;;;;;;15.77;9.18;;;;;;;16.35;86.01;96235.88;5069739;28;20406;-76
2022/05/18 07:16:32;;;;;;;14.43;9.20;;;;;;;16.40;87.04;96235.78;5063134;28;20091;-76
2022/05/18 07:18:58;;;;;;;18.58;9.15;;;;;;;16.29;86.36;96237.00;5048980;28;20041;-77
2022/05/18 07:21:25;;;;;;;15.52;8.50;;;;;;;16.28;87.75;96230.13;5058617;28;20036;-77
2022/05/18 07:23:54;;;;;;;23.85;8.88;;;;;;;16.15;88.51;96230.84;5067335;28;20405;-76
2022/05/18 07:26:21;;;;;;;13.52;8.93;;;;;;;16.47;86.45;96226.69;5054885;28;20056;-77
2022/05/18 07:28:48;;;;;;;17.63;8.57;;;;;;;16.71;82.22;96232.66;5066272;28;20051;-76
2022/05/18 07:31:14;;;;;;;16.65;9.57;;;;;;;17.06;81.34;96219.88;5070357;28;20118;-76
2022/05/18 07:33:40;;;;;;;17.65;9.23;;;;;;;17.09;81.68;96227.25;5062914;28;20517;-77
2022/05/18 07:36:06;;;;;;;16.83;9.20;;;;;;;17.22;80.56;96224.91;5066197;28;20037;-76
2022/05/18 07:38:33;;;;;;;15.60;9.13;;;;;;;17.45;78.93;96229.25;5071885;28;20041;-76
2022/05/18 07:40:59;;;;;;;17.25;9.00;;;;;;;17.70;78.89;96229.84;5053711;28;20041;-76
2022/05/18 07:43:25;;;;;;;13.88;8.90;;;;;;;17.70;77.59;96229.84;5056100;28;20047;-76
2022/05/18 07:45:53;;;;;;;13.30;8.07;;;;;;;17.95;74.94;96225.09;5055464;28;20053;-77
2022/05/18 07:48:20;;;;;;;18.13;8.32;;;;;;;17.80;78.03;96229.63;5056930;28;20081;-76
2022/05/18 07:50:46;;;;;;;16.83;9.18;;;;;;;17.68;80.16;96226.69;5076501;28;20033;-77
2022/05/18 07:53:12;;;;;;;16.13;9.20;;;;;;;17.61;79.92;96221.78;5075362;28;20060;-76
2022/05/18 07:55:37;;;;;;;17.23;8.85;;;;;;;17.87;77.74;96220.44;5078565;28;20029;-75
2022/05/18 07:58:09;;;;;;;14.93;9.07;;;;;;;17.76;81.85;96223.34;5080864;28;20033;-75
2022/05/18 08:00:35;;;;;;;14.80;9.05;;;;;;;17.87;78.82;96217.78;5079778;28;20035;-75
2022/05/18 08:03:02;;;;;;;12.00;8.50;;;;;;;18.03;78.35;96221.75;5091057;28;20056;-75
2022/05/18 08:05:29;;;;;;;19.83;9.25;;;;;;;17.89;78.26;96231.59;5090143;28;20056;-74
2022/05/18 08:07:55;;;;;;;13.90;7.82;;;;;;;17.82;77.68;96232.78;5082600;28;20065;-75
2022/05/18 08:15:53;;;;;;;18.50;7.18;;;;;;;18.20;74.21;96228.31;5090613;28;20033;-73
2022/05/18 08:18:20;;;;;;;17.30;7.18;;;;;;;18.22;73.34;96239.47;5083542;28;20028;-74
2022/05/18 08:20:46;;;;;;;20.33;7.90;;;;;;;18.22;74.15;96228.81;5092163;28;20048;-75
2022/05/18 08:23:12;;;;;;;11.98;7.00;;;;;;;18.30;72.97;96236.06;5080484;28;20036;-75
2022/05/18 08:25:38;;;;;;;12.40;7.38;;;;;;;18.77;71.64;96239.22;5054480;28;20482;-76
2022/05/18 08:28:06;;;;;;;13.77;6.60;;;;;;;18.99;69.01;96235.00;5052719;28;20087;-75
2022/05/18 08:30:32;;;;;;;12.70;7.57;;;;;;;18.85;68.31;96233.16;5053030;28;20036;-77
2022/05/18 08:32:58;;;;;;;12.63;7.43;;;;;;;18.81;72.21;96240.19;5073024;28;20123;-77
2022/05/18 08:35:24;;;;;;;16.67;8.52;;;;;;;18.80;71.92;96238.63;5063874;28;20044;-77
2022/05/18 08:37:50;;;;;;;19.27;8.52;;;;;;;18.74;71.54;96234.50;5061883;28;20045;-77
2022/05/18 08:40:49;;;;;;;13.73;8.35;;;;;;;18.93;73.30;96237.00;5067671;28;20056;-77
2022/05/18 08:43:31;;;;;;;15.60;8.60;;;;;;;19.42;71.14;96234.41;5071764;28;20089;-77
2022/05/18 08:46:09;;;;;;;13.52;8.50;;;;;;;19.74;71.84;96227.16;5069717;28;20040;-76
2022/05/18 08:48:44;;;;;;;13.80;8.07;;;;;;;19.97;66.48;96227.03;5068106;28;20039;-77
2022/05/18 08:51:40;;;;;;;17.00;8.38;;;;;;;19.93;67.42;96223.44;5051891;28;20056;-76
2022/05/18 08:54:44;;;;;;;12.85;7.97;;;;;;;19.80;67.62;96217.91;5051792;28;20047;-77
2022/05/18 08:57:21;;;;;;;13.68;7.35;;;;;;;20.25;68.58;96225.66;5071024;28;20044;-77
2022/05/18 08:59:51;;;;;;;16.92;7.70;;;;;;;20.29;66.09;96230.41;5051044;28;20041;-76
2022/05/18 09:02:20;;;;;;;13.75;7.95;;;;;;;20.30;65.56;96226.59;5054926;28;20037;-77
2022/05/18 09:05:01;;;;;;;16.45;8.18;;;;;;;20.14;65.63;96213.72;5054290;28;20091;-75
2022/05/18 09:07:32;;;;;;;12.95;7.85;;;;;;;20.46;66.06;96225.03;5050796;28;20456;-77
2022/05/18 09:10:12;;;;;;;12.45;7.57;;;;;;;20.37;66.72;96221.56;5050729;28;20128;-77
2022/05/18 09:12:41;;;;;;;15.77;8.38;;;;;;;20.03;62.99;96223.91;5051469;28;20041;-77
2022/05/18 09:15:09;;;;;;;17.00;8.95;;;;;;;20.16;64.25;96222.19;5051371;28;20047;-77
2022/05/18 09:17:43;;;;;;;15.85;7.70;;;;;;;20.37;63.75;96217.03;5051837;28;20044;-78
2022/05/18 09:20:20;;;;;;;12.35;7.97;;;;;;;20.44;64.53;96216.53;5060628;28;20044;-75
2022/05/18 09:23:12;;;;;;;13.35;7.80;;;;;;;20.33;63.33;96215.28;5064356;28;20040;-76
2022/05/18 09:25:51;;;;;;;10.75;6.88;;;;;;;20.34;63.76;96223.00;5071039;28;20351;-76
2022/05/18 09:28:29;;;;;;;12.80;6.50;;;;;;;20.13;60.82;96212.16;5063750;28;20082;-76
2022/05/18 09:31:03;;;;;;;16.83;5.78;;;;;;;20.29;57.13;96214.34;5052121;28;20041;-76
2022/05/18 09:33:47;;;;;;;;;;;;;;;20.27;58.13;96213.88;5051507;28;20055;-76
2022/05/18 09:36:41;;;;;;;14.77;6.57;;;;;;;20.40;58.53;96211.03;5064796;28;20473;-76
2022/05/18 09:39:10;;;;;;;12.07;6.60;;;;;;;20.55;59.52;96217.78;5048078;28;20064;-76
2022/05/18 09:41:41;;;;;;;12.73;6.40;;;;;;;20.56;60.44;96208.69;5051997;28;20471;-77
2022/05/18 09:44:26;;;;;;;13.73;6.90;;;;;;;20.64;61.70;96209.75;5069865;28;20170;-77
2022/05/18 09:46:52;;;;;;;11.80;6.35;;;;;;;20.64;57.65;96208.97;5071043;28;20056;-77
2022/05/18 09:49:28;;;;;;;13.75;6.50;;;;;;;20.74;56.69;96208.66;5055953;28;20418;-76
2022/05/18 09:51:58;;;;;;;13.98;6.70;;;;;;;20.76;57.04;96209.94;5067419;28;20045;-77
2022/05/18 09:54:24;;;;;;;10.07;6.07;;;;;;;20.91;57.55;96207.84;5069946;28;20044;-77
2022/05/18 09:57:15;;;;;;;13.70;6.18;;;;;;;20.97;52.91;96205.78;5069040;28;20097;-77
2022/05/18 09:59:56;;;;;;;11.00;5.63;;;;;;;21.09;53.46;96208.59;5049882;28;20061;-77
2022/05/18 10:07:57;;;;;;;10.93;5.40;;;;;;;21.89;50.62;96207.91;5050474;28;20041;-76
2022/05/18 10:10:26;;;;;;;8.15;4.90;;;;;;;22.03;52.90;96213.03;5050246;28;20102;-77
2022/05/18 10:12:54;;;;;;;10.85;5.38;;;;;;;22.13;49.66;96203.81;5054082;28;20048;-77
2022/05/18 10:15:25;;;;;;;6.78;4.47;;;;;;;22.39;47.38;96203.63;5054644;28;20609;-77
2022/05/18 10:17:57;;;;;;;20.38;6.53;;;;;;;22.81;51.44;96208.94;5058559;28;20052;-78
2022/05/18 10:20:37;;;;;;;11.77;7.15;;;;;;;22.78;48.36;96187.34;5054440;28;20066;-76
2022/05/18 10:23:04;;;;;;;8.57;6.00;;;;;;;22.60;51.59;96187.50;5052238;28;20041;-76
2022/05/18 10:25:48;;;;;;;11.88;7.10;;;;;;;22.70;49.73;96191.69;5050073;28;20090;-76
2022/05/18 10:28:27;;;;;;;13.88;6.38;;;;;;;22.88;52.89;96191.50;5049980;28;20051;-76
2022/05/18 10:31:03;;;;;;;10.57;6.63;;;;;;;23.06;51.70;96197.44;5050268;28;20041;-77
2022/05/18 10:33:39;;;;;;;13.40;6.85;;;;;;;23.04;51.77;96195.09;5051257;28;20501;-77
2022/05/18 10:36:10;;;;;;;16.77;6.43;;;;;;;22.72;49.88;96194.03;5062435;28;20072;-76
2022/05/18 10:38:38;;;;;;;15.50;6.00;;;;;;;22.86;49.54;96199.88;5059921;28;20037;-76
2022/05/18 10:41:03;;;;;;;12.68;6.38;;;;;;;23.38;50.04;96197.75;5061385;28;20040;-77
2022/05/18 10:43:40;;;;;;;11.30;5.88;;;;;;;23.16;47.12;96191.69;5069417;28;20068;-76
2022/05/18 10:46:12;;;;;;;11.05;5.20;;;;;;;23.44;45.87;96197.19;5053289;28;20048;-76
2022/05/18 10:48:41;;;;;;;10.10;5.13;;;;;;;24.50;47.11;96197.22;5049440;28;20047;-77
2022/05/18 10:51:12;;;;;;;14.27;5.38;;;;;;;24.19;44.49;96187.13;5050777;28;20052;-76
2022/05/18 10:53:44;;;;;;;12.13;5.32;;;;;;;24.90;44.65;96190.22;5049855;28;20200;-77
2022/05/18 10:56:27;;;;;;;7.85;5.55;;;;;;;24.73;42.42;96191.31;5056628;28;20098;-76
2022/05/18 10:59:18;;;;;;;9.48;5.65;;;;;;;25.02;42.44;96184.75;5049794;28;20041;-77
2022/05/18 11:02:28;;;;;;;11.07;5.57;;;;;;;24.54;43.34;96186.56;5063309;28;20051;-76
2022/05/18 11:05:25;;;;;;;13.10;6.07;;;;;;;25.16;42.99;96178.16;5049430;28;20037;-76
2022/05/18 11:07:50;;;;;;;10.38;5.88;;;;;;;25.52;42.83;96184.44;5048022;28;20060;-77
2022/05/18 11:10:16;;;;;;;11.73;6.47;;;;;;;26.56;42.38;96180.44;5048962;28;20037;-77
2022/05/18 11:12:44;;;;;;;11.57;6.50;;;;;;;26.00;40.88;96177.00;5049304;28;20045;-76
2022/05/18 11:15:17;;;;;;;11.82;5.85;;;;;;;25.53;42.84;96175.19;5062792;28;20044;-77
2022/05/18 11:17:54;;;;;;;11.10;6.33;;;;;;;25.52;42.61;96173.66;5066380;28;20075;-77
2022/05/18 11:20:54;;;;;;;10.70;6.60;;;;;;;26.26;42.29;96167.53;5064439;28;20286;-77
2022/05/18 11:23:34;;;;;;;10.20;7.30;;;;;;;25.95;43.71;96171.88;5049681;28;20471;-77
2022/05/18 11:26:27;;;;;;;16.17;7.35;;;;;;;26.70;44.06;96179.97;5047918;28;20048;-76
2022/05/18 11:29:04;;;;;;;15.45;7.38;;;;;;;26.31;44.21;96175.34;5055834;28;20036;-77
2022/05/18 11:32:07;;;;;;;21.77;8.18;;;;;;;26.42;43.99;96176.34;5068975;28;20045;-76
2022/05/18 11:35:03;;;;;;;16.88;7.22;;;;;;;26.37;42.07;96168.50;5071439;28;20079;-76
2022/05/18 11:38:02;;;;;;;22.20;7.47;;;;;;;26.95;41.59;96164.19;5054442;28;20410;-77
2022/05/18 11:41:14;;;;;;;12.07;7.68;;;;;;;27.47;41.42;96168.13;5051195;28;20060;-77
2022/05/18 11:43:53;;;;;;;14.73;8.38;;;;;;;26.95;43.02;96164.19;5031084;28;20049;-77
2022/05/18 11:46:40;;;;;;;12.52;8.18;;;;;;;26.99;43.18;96154.22;5038051;28;20069;-77
2022/05/18 11:49:29;;;;;;;18.33;8.77;;;;;;;25.14;45.20;96153.47;5051694;28;20064;-76
2022/05/18 11:52:06;;;;;;;16.80;8.32;;;;;;;24.41;47.53;96152.75;5052949;28;20521;-76